Time;durP1;ratioP1;P1;durP2;ratioP2;P2;SDS_P1;SDS_P2;PMS_P1;PMS_P2;Temp;Humidity;BMP_temperature;BMP_pressure;BME280_temperature;BME280_humidity;BME280_pressure;Samples;Min_cycle;Max_cycle;Signal;HPM_P1;HPM_P2
2021/04/23 00:01:32;;;;;;;13.20;4.38;;;;;;;3.34;100.00;102818.94;5164071;28;20034;-78
2021/04/23 00:04:05;;;;;;;15.30;4.10;;;;;;;3.25;100.00;102814.06;5163463;28;20030;-78
2021/04/23 00:06:38;;;;;;;10.68;3.53;;;;;;;3.23;100.00;102816.78;5163898;28;20022;-79
2021/04/23 00:09:15;;;;;;;15.27;4.63;;;;;;;3.19;100.00;102817.84;5163208;28;20121;-79
2021/04/23 00:11:51;;;;;;;11.60;3.80;;;;;;;3.18;100.00;102818.78;5163627;28;20034;-78
2021/04/23 00:14:26;;;;;;;18.80;5.78;;;;;;;3.18;100.00;102815.28;5163468;28;20065;-79
2021/04/23 00:16:57;;;;;;;13.73;4.70;;;;;;;3.07;100.00;102821.09;5164241;28;20030;-78
2021/04/23 00:19:28;;;;;;;16.73;4.00;;;;;;;2.97;100.00;102823.28;5163145;28;20033;-79
2021/04/23 00:21:59;;;;;;;14.20;3.95;;;;;;;2.91;100.00;102825.31;5164099;28;20470;-78
2021/04/23 00:24:30;;;;;;;15.23;4.25;;;;;;;2.84;100.00;102825.59;5163452;28;20050;-79
2021/04/23 00:27:03;;;;;;;12.68;3.53;;;;;;;2.82;100.00;102826.63;5163991;28;20100;-79
2021/04/23 00:29:35;;;;;;;15.70;4.35;;;;;;;2.78;100.00;102828.53;5163367;28;20065;-78
2021/04/23 00:32:06;;;;;;;22.30;4.43;;;;;;;2.73;100.00;102827.88;5162103;28;20026;-78
2021/04/23 00:34:37;;;;;;;14.23;3.90;;;;;;;2.68;100.00;102829.88;5163106;28;20098;-78
2021/04/23 00:37:08;;;;;;;15.02;3.97;;;;;;;2.64;100.00;102819.47;5163843;28;20038;-78
2021/04/23 00:39:38;;;;;;;11.90;4.03;;;;;;;2.61;100.00;102831.06;5163002;28;20476;-79
2021/04/23 00:42:09;;;;;;;18.00;4.65;;;;;;;2.56;100.00;102825.09;5163414;28;20037;-78
2021/04/23 00:44:39;;;;;;;13.57;3.90;;;;;;;2.49;100.00;102828.94;5163170;28;20491;-78
2021/04/23 00:47:11;;;;;;;13.02;3.83;;;;;;;2.41;100.00;102823.97;5163241;28;20058;-78
2021/04/23 00:49:41;;;;;;;16.17;4.30;;;;;;;2.32;100.00;102837.59;5162921;28;20034;-79
2021/04/23 00:52:12;;;;;;;15.30;4.28;;;;;;;2.25;100.00;102834.34;5162974;28;20026;-79
2021/04/23 00:54:42;;;;;;;11.07;3.85;;;;;;;2.17;100.00;102832.94;5163138;28;20113;-81
2021/04/23 00:57:13;;;;;;;13.10;4.28;;;;;;;2.09;100.00;102827.97;5149698;28;20019;-79
2021/04/23 00:59:43;;;;;;;22.77;4.90;;;;;;;2.03;100.00;102834.38;5163147;28;20041;-80
2021/04/23 01:02:15;;;;;;;20.63;5.15;;;;;;;1.99;100.00;102831.91;5163886;28;20038;-78
2021/04/23 01:04:46;;;;;;;14.77;3.92;;;;;;;1.95;100.00;102830.31;5163727;28;20041;-78
2021/04/23 01:07:17;;;;;;;14.50;4.60;;;;;;;1.89;100.00;102828.75;5163510;28;20539;-79
2021/04/23 01:09:48;;;;;;;19.55;5.10;;;;;;;1.83;100.00;102833.47;5163384;28;20042;-78
2021/04/23 01:12:18;;;;;;;20.02;5.90;;;;;;;1.78;100.00;102829.19;5163739;28;20069;-78
2021/04/23 01:14:49;;;;;;;15.70;4.55;;;;;;;1.72;100.00;102832.09;5163152;28;20502;-79
2021/04/23 01:17:20;;;;;;;12.65;5.10;;;;;;;1.69;100.00;102832.22;5166490;28;20042;-79
2021/04/23 01:19:50;;;;;;;10.70;4.00;;;;;;;1.64;100.00;102834.16;5166821;28;20018;-79
2021/04/23 01:22:21;;;;;;;8.25;4.50;;;;;;;1.59;100.00;102827.34;5167435;28;20026;-80
2021/04/23 01:24:52;;;;;;;15.80;4.68;;;;;;;1.54;100.00;102830.16;5167620;28;20018;-79
2021/04/23 01:27:23;;;;;;;10.88;3.80;;;;;;;1.50;100.00;102828.56;5167428;28;20044;-79
2021/04/23 01:29:54;;;;;;;14.63;4.13;;;;;;;1.46;100.00;102829.63;5167089;28;20026;-79
2021/04/23 01:32:24;;;;;;;19.98;4.57;;;;;;;1.43;100.00;102827.06;5166781;28;20081;-78
2021/04/23 01:34:55;;;;;;;16.38;5.20;;;;;;;1.34;100.00;102822.13;5167456;28;20129;-78
2021/04/23 01:37:26;;;;;;;15.18;4.57;;;;;;;1.28;100.00;102823.22;5167227;28;20054;-80
2021/04/23 01:39:57;;;;;;;15.00;5.20;;;;;;;1.23;100.00;102820.75;5166872;28;20030;-78
2021/04/23 01:42:28;;;;;;;13.77;5.07;;;;;;;1.18;100.00;102820.06;5167360;28;20033;-79
2021/04/23 01:44:59;;;;;;;11.27;4.57;;;;;;;1.04;100.00;102828.50;5166672;28;20037;-79
2021/04/23 01:47:37;;;;;;;18.85;5.15;;;;;;;0.97;100.00;102820.88;5166908;28;20480;-79
2021/04/23 01:50:12;;;;;;;15.77;4.80;;;;;;;0.94;100.00;102826.25;5166717;28;20101;-79
2021/04/23 01:52:43;;;;;;;18.50;5.35;;;;;;;0.92;100.00;102822.81;5166921;28;20423;-78
2021/04/23 01:55:17;;;;;;;18.17;6.55;;;;;;;0.93;100.00;102821.91;5165419;28;20076;-79
2021/04/23 01:57:49;;;;;;;18.77;4.65;;;;;;;0.93;100.00;102821.91;5149175;28;20049;-79
2021/04/23 02:00:29;;;;;;;12.63;5.40;;;;;;;0.94;100.00;102829.75;5166320;28;20416;-78
2021/04/23 02:03:04;;;;;;;19.95;5.57;;;;;;;0.91;100.00;102832.53;5166668;28;20058;-78
2021/04/23 02:05:36;;;;;;;18.85;6.05;;;;;;;0.90;100.00;102840.50;5166460;28;20534;-78
2021/04/23 02:08:09;;;;;;;23.55;6.38;;;;;;;0.88;100.00;102837.91;5166553;28;20085;-78
2021/04/23 02:10:45;;;;;;;13.85;5.45;;;;;;;0.87;100.00;102840.63;5165963;28;20105;-79
2021/04/23 02:13:22;;;;;;;19.02;5.55;;;;;;;0.87;100.00;102840.63;5166133;28;20030;-79
2021/04/23 02:15:53;;;;;;;20.02;5.60;;;;;;;0.87;100.00;102835.34;5166848;28;20033;-79
2021/04/23 02:18:25;;;;;;;20.77;5.72;;;;;;;0.85;100.00;102839.81;5165904;28;20093;-78
2021/04/23 02:20:56;;;;;;;17.17;5.10;;;;;;;0.80;100.00;102839.97;5165993;28;20026;-78
2021/04/23 02:23:26;;;;;;;19.35;6.45;;;;;;;0.77;100.00;102838.31;5165915;28;20022;-79
2021/04/23 02:25:57;;;;;;;24.88;5.90;;;;;;;0.76;100.00;102841.88;5166547;28;20357;-79
2021/04/23 02:28:28;;;;;;;18.75;6.95;;;;;;;0.76;100.00;102841.88;5164898;28;20031;-80
2021/04/23 02:31:08;;;;;;;17.35;5.90;;;;;;;0.76;100.00;102846.28;5165793;28;20027;-79
2021/04/23 02:33:42;;;;;;;21.67;6.22;;;;;;;0.76;100.00;102849.81;5166101;28;20062;-79
2021/04/23 02:36:14;;;;;;;24.23;7.65;;;;;;;0.75;100.00;102848.09;5165796;28;20270;-79
2021/04/23 02:38:46;;;;;;;24.77;5.38;;;;;;;0.72;100.00;102852.59;5166874;28;20480;-79
2021/04/23 02:41:19;;;;;;;18.55;5.63;;;;;;;0.68;100.00;102859.75;5166634;28;20022;-79
2021/04/23 02:43:53;;;;;;;16.70;5.53;;;;;;;0.62;100.00;102862.63;5167303;28;20031;-78
2021/04/23 02:46:25;;;;;;;20.27;7.57;;;;;;;0.59;100.00;102862.72;5160891;28;20137;-77
2021/04/23 02:48:56;;;;;;;16.75;6.40;;;;;;;0.54;100.00;102867.28;5160990;28;20093;-79
2021/04/23 02:51:30;;;;;;;14.55;5.00;;;;;;;0.50;100.00;102865.66;5166575;28;20038;-79
2021/04/23 02:54:03;;;;;;;15.77;4.77;;;;;;;0.48;100.00;102855.16;5166177;28;20037;-79
2021/04/23 02:56:33;;;;;;;16.17;6.03;;;;;;;0.45;100.00;102860.56;5166651;28;20297;-79
2021/04/23 02:59:06;;;;;;;19.65;5.45;;;;;;;0.41;100.00;102852.81;5182161;28;20040;-79
2021/04/23 03:01:45;;;;;;;18.08;5.60;;;;;;;0.35;100.00;102858.25;5166679;28;20038;-79
2021/04/23 03:04:16;;;;;;;18.48;4.85;;;;;;;0.30;100.00;102860.19;5153915;28;20093;-79
2021/04/23 03:06:47;;;;;;;12.50;5.20;;;;;;;0.24;100.00;102853.34;5166621;28;20026;-79
2021/04/23 03:09:17;;;;;;;15.52;5.90;;;;;;;0.19;100.00;102858.78;5166148;28;20036;-77
2021/04/23 03:11:47;;;;;;;20.92;7.20;;;;;;;0.16;100.00;102848.34;5164740;28;20027;-79
2021/04/23 03:14:18;;;;;;;16.45;4.97;;;;;;;0.12;100.00;102851.97;5164675;28;20037;-77
2021/04/23 03:16:49;;;;;;;21.52;6.45;;;;;;;0.05;100.00;102855.75;5165370;28;20377;-79
2021/04/23 03:19:21;;;;;;;27.05;6.28;;;;;;;-0.02;100.00;102855.06;5166020;28;20058;-79
2021/04/23 03:21:52;;;;;;;19.05;6.40;;;;;;;-0.04;100.00;102858.66;5165520;28;20072;-78
2021/04/23 03:24:22;;;;;;;15.27;6.18;;;;;;;-0.07;100.00;102864.91;5165314;28;20061;-79
2021/04/23 03:26:53;;;;;;;22.65;7.38;;;;;;;-0.08;100.00;102860.53;5163994;28;20030;-79
2021/04/23 03:29:24;;;;;;;22.38;6.45;;;;;;;-0.10;100.00;102870.28;5163827;28;20026;-76
2021/04/23 03:31:54;;;;;;;22.92;6.45;;;;;;;-0.12;100.00;102877.38;5164266;28;20045;-79
2021/04/23 03:34:25;;;;;;;21.30;6.20;;;;;;;-0.13;100.00;102878.28;5165248;28;20041;-79
2021/04/23 03:36:56;;;;;;;23.48;6.63;;;;;;;-0.15;100.00;102871.31;5165114;28;20483;-79
2021/04/23 03:39:27;;;;;;;21.02;6.28;;;;;;;-0.16;100.00;102874.88;5163831;28;20022;-79
2021/04/23 03:41:57;;;;;;;18.38;6.50;;;;;;;-0.19;100.00;102875.84;5164978;28;20026;-79
2021/04/23 03:44:28;;;;;;;17.70;6.05;;;;;;;-0.23;100.00;102871.56;5167751;28;20030;-79
2021/04/23 03:46:58;;;;;;;19.13;5.97;;;;;;;-0.26;100.00;102866.38;5170390;28;20046;-78
2021/04/23 03:49:29;;;;;;;14.93;6.07;;;;;;;-0.28;100.00;102876.13;5169914;28;20037;-79
2021/04/23 03:51:59;;;;;;;18.80;5.55;;;;;;;-0.32;100.00;102871.84;5169196;28;20030;-79
2021/04/23 03:54:30;;;;;;;30.50;6.80;;;;;;;-0.35;100.00;102871.94;5166056;28;20022;-76
2021/04/23 03:57:00;;;;;;;19.23;6.18;;;;;;;-0.38;100.00;102872.03;5147512;28;20033;-78
2021/04/23 03:59:31;;;;;;;26.33;6.95;;;;;;;-0.40;100.00;102872.09;5164983;28;20018;-79
2021/04/23 04:02:05;;;;;;;23.65;7.18;;;;;;;-0.41;100.00;102878.25;5163532;28;20034;-79
2021/04/23 04:04:35;;;;;;;21.42;6.25;;;;;;;-0.41;100.00;102878.25;5164145;28;20113;-79
2021/04/23 04:07:06;;;;;;;17.63;6.63;;;;;;;-0.42;100.00;102879.16;5164285;28;20116;-79
2021/04/23 04:09:36;;;;;;;25.95;8.32;;;;;;;-0.41;100.00;102886.16;5163892;28;20452;-79
2021/04/23 04:12:07;;;;;;;27.30;8.55;;;;;;;-0.42;100.00;102892.34;5167008;28;20446;-79
2021/04/23 04:14:38;;;;;;;27.15;7.57;;;;;;;-0.44;100.00;102886.28;5170530;28;20053;-79
2021/04/23 04:17:08;;;;;;;26.60;7.20;;;;;;;-0.43;100.00;102897.69;5167254;28;20030;-79
2021/04/23 04:19:38;;;;;;;28.42;7.00;;;;;;;-0.45;100.00;102891.56;5148883;28;20015;-78
2021/04/23 04:22:09;;;;;;;24.60;7.05;;;;;;;-0.49;100.00;102895.22;5167305;28;20435;-79
2021/04/23 04:24:40;;;;;;;29.95;7.90;;;;;;;-0.48;100.00;102899.59;5166605;28;20058;-79
2021/04/23 04:27:10;;;;;;;24.60;6.75;;;;;;;-0.47;100.00;102911.84;5166640;28;20018;-78
2021/04/23 04:29:41;;;;;;;30.88;6.80;;;;;;;-0.49;100.00;102911.91;5164741;28;20113;-78
2021/04/23 04:32:11;;;;;;;27.58;7.53;;;;;;;-0.49;100.00;102909.28;5165640;28;20037;-79
2021/04/23 04:34:43;;;;;;;23.23;6.82;;;;;;;-0.48;100.00;102913.63;5166539;28;20112;-79
2021/04/23 04:37:13;;;;;;;25.30;6.97;;;;;;;-0.47;100.00;102920.63;5165630;28;20108;-79
2021/04/23 04:39:44;;;;;;;25.83;7.07;;;;;;;-0.47;100.00;102914.50;5165580;28;20060;-77
2021/04/23 04:42:14;;;;;;;31.92;7.68;;;;;;;-0.46;100.00;102919.72;5165357;28;20032;-79
2021/04/23 04:44:45;;;;;;;20.98;6.97;;;;;;;-0.44;100.00;102923.19;5165512;28;20459;-78
2021/04/23 04:47:15;;;;;;;18.15;6.95;;;;;;;-0.42;100.00;102926.63;5165405;28;20503;-78
2021/04/23 04:49:46;;;;;;;19.45;6.40;;;;;;;-0.39;100.00;102923.06;5165466;28;20045;-79
2021/04/23 04:52:16;;;;;;;23.30;6.43;;;;;;;-0.40;100.00;102921.31;5163675;28;20042;-76
2021/04/23 04:54:47;;;;;;;19.48;7.88;;;;;;;-0.40;100.00;102922.19;5164917;28;20030;-79
2021/04/23 04:57:17;;;;;;;38.10;7.82;;;;;;;-0.34;100.00;102922.00;5163763;28;20476;-78
2021/04/23 04:59:48;;;;;;;20.35;6.97;;;;;;;-0.28;100.00;102916.53;5164432;28;20638;-78
2021/04/23 05:02:18;;;;;;;26.42;8.27;;;;;;;-0.23;100.00;102919.06;5164219;28;20019;-79
2021/04/23 05:04:49;;;;;;;19.13;6.93;;;;;;;-0.21;100.00;102926.91;5164764;28;20113;-79
2021/04/23 05:07:19;;;;;;;33.83;8.40;;;;;;;-0.16;100.00;102931.13;5162801;28;20022;-76
2021/04/23 05:09:50;;;;;;;22.98;7.68;;;;;;;-0.08;100.00;102930.91;5163613;28;20026;-79
2021/04/23 05:12:20;;;;;;;32.97;8.57;;;;;;;0.03;100.00;102941.13;5162580;28;20076;-79
2021/04/23 05:14:51;;;;;;;24.40;7.60;;;;;;;0.14;100.00;102945.16;5162247;28;20373;-79
2021/04/23 05:17:22;;;;;;;25.05;7.85;;;;;;;0.27;100.00;102950.94;5163174;28;20038;-78
2021/04/23 05:19:52;;;;;;;32.63;8.38;;;;;;;0.50;100.00;102947.53;5163044;28;20509;-79
2021/04/23 05:22:23;;;;;;;22.55;8.13;;;;;;;1.26;100.00;102950.22;5163213;28;20383;-79
2021/04/23 05:24:53;;;;;;;31.35;8.57;;;;;;;2.84;100.00;102952.00;5162828;28;20392;-79
2021/04/23 05:27:24;;;;;;;28.20;8.38;;;;;;;4.62;100.00;102950.00;5146094;28;20117;-77
2021/04/23 05:29:54;;;;;;;21.77;6.43;;;;;;;5.86;100.00;102954.13;5161448;28;20019;-79
2021/04/23 05:32:25;;;;;;;19.00;6.03;;;;;;;6.68;100.00;102962.81;5166040;28;20491;-79
2021/04/23 05:34:55;;;;;;;21.50;7.05;;;;;;;8.34;100.00;102955.25;5166313;28;20429;-80
2021/04/23 05:37:26;;;;;;;17.30;6.43;;;;;;;9.45;100.00;102961.06;5167222;28;20018;-79
2021/04/23 05:39:57;;;;;;;24.30;6.63;;;;;;;10.13;99.13;102960.63;5167973;28;20033;-79
2021/04/23 05:42:27;;;;;;;21.35;6.10;;;;;;;10.41;93.76;102972.06;5167886;28;20034;-79
2021/04/23 05:44:58;;;;;;;15.52;7.05;;;;;;;10.67;76.79;102969.25;5168492;28;20030;-80
2021/04/23 05:47:28;;;;;;;21.17;6.35;;;;;;;11.11;76.27;102979.31;5166843;28;20046;-80
2021/04/23 05:49:59;;;;;;;17.30;6.45;;;;;;;10.77;68.99;102978.34;5168106;28;20057;-79
2021/04/23 05:52:29;;;;;;;20.95;6.32;;;;;;;11.61;65.77;102972.69;5167694;28;20038;-80
2021/04/23 05:55:00;;;;;;;20.70;6.75;;;;;;;11.68;63.83;102981.97;5167880;28;20077;-79
2021/04/23 05:57:30;;;;;;;21.58;6.50;;;;;;;12.36;59.30;102980.09;5155508;28;20417;-78
2021/04/23 06:00:04;;;;;;;25.13;6.78;;;;;;;11.46;60.77;102986.47;5167733;28;20054;-79
2021/04/23 06:02:35;;;;;;;19.60;7.03;;;;;;;12.02;58.80;102997.28;5168960;28;20073;-80
2021/04/23 06:05:07;;;;;;;20.05;7.43;;;;;;;12.08;59.92;102992.25;5171466;28;20507;-78
2021/04/23 06:07:37;;;;;;;21.67;7.25;;;;;;;12.39;58.10;102992.44;5171677;28;20026;-78
2021/04/23 06:10:11;;;;;;;20.88;6.90;;;;;;;12.14;57.67;102997.13;5170181;28;20027;-79
2021/04/23 06:12:42;;;;;;;21.88;7.03;;;;;;;11.59;60.12;103000.66;5170659;28;20027;-78
2021/04/23 06:15:13;;;;;;;18.83;7.47;;;;;;;10.51;73.74;102997.25;5170237;28;20146;-80
2021/04/23 06:17:44;;;;;;;16.60;6.13;;;;;;;9.00;99.86;102994.56;5171619;28;20163;-80
2021/04/23 06:20:19;;;;;;;24.45;7.18;;;;;;;7.98;100.00;102999.41;5167772;28;20034;-78
2021/04/23 06:22:50;;;;;;;27.15;7.75;;;;;;;7.11;100.00;102999.44;5159829;28;20488;-79
2021/04/23 06:25:21;;;;;;;17.70;6.63;;;;;;;6.63;100.00;103001.38;5164377;28;20034;-80
2021/04/23 06:27:53;;;;;;;22.42;8.10;;;;;;;6.31;100.00;102993.38;5164241;28;20034;-78
2021/04/23 06:30:28;;;;;;;20.77;7.05;;;;;;;6.11;100.00;103002.47;5168830;28;20037;-79
2021/04/23 06:33:07;;;;;;;28.98;7.07;;;;;;;5.94;100.00;103000.75;5168599;28;20030;-78
2021/04/23 06:35:37;;;;;;;26.02;7.60;;;;;;;5.88;100.00;103001.06;5169043;28;20026;-78
2021/04/23 06:38:08;;;;;;;29.77;7.65;;;;;;;5.89;100.00;103000.13;5167603;28;20033;-77
2021/04/23 06:40:39;;;;;;;18.20;7.18;;;;;;;5.93;100.00;103004.38;5166950;28;20023;-76
2021/04/23 06:43:09;;;;;;;24.83;7.28;;;;;;;5.94;100.00;103003.41;5168808;28;20026;-77
2021/04/23 06:45:40;;;;;;;19.08;6.85;;;;;;;5.92;100.00;103010.66;5167628;28;20120;-79
2021/04/23 06:48:13;;;;;;;25.63;6.75;;;;;;;6.01;100.00;103011.94;5168232;28;20097;-81
2021/04/23 06:50:43;;;;;;;22.40;7.30;;;;;;;6.13;100.00;103007.75;5168286;28;20026;-79
2021/04/23 06:53:14;;;;;;;23.17;7.07;;;;;;;6.20;100.00;103011.78;5167256;28;20041;-79
2021/04/23 06:55:46;;;;;;;28.40;7.18;;;;;;;6.25;100.00;103014.19;5168297;28;20022;-79
2021/04/23 06:58:16;;;;;;;15.05;6.20;;;;;;;6.34;100.00;103013.69;5167813;28;20022;-78
2021/04/23 07:00:47;;;;;;;16.65;7.00;;;;;;;6.44;100.00;103018.41;5167718;28;20037;-79
2021/04/23 07:03:18;;;;;;;20.20;8.25;;;;;;;6.56;100.00;103021.31;5166696;28;20025;-77
2021/04/23 07:05:48;;;;;;;19.02;8.23;;;;;;;6.76;100.00;103026.38;5166474;28;20108;-80
2021/04/23 07:08:19;;;;;;;18.58;7.47;;;;;;;6.83;100.00;103025.09;5167612;28;20081;-80
2021/04/23 07:10:49;;;;;;;22.50;7.30;;;;;;;6.73;100.00;103027.44;5167965;28;20396;-79
2021/04/23 07:13:20;;;;;;;19.65;7.05;;;;;;;6.71;100.00;103025.78;5166610;28;20035;-78
2021/04/23 07:15:50;;;;;;;21.35;7.00;;;;;;;6.75;100.00;103033.53;5166786;28;20108;-79
2021/04/23 07:18:21;;;;;;;17.08;6.25;;;;;;;6.95;100.00;103034.19;5166556;28;20054;-78
2021/04/23 07:20:51;;;;;;;18.75;6.65;;;;;;;7.09;100.00;103022.72;5151393;28;20061;-79
2021/04/23 07:23:22;;;;;;;16.65;5.72;;;;;;;7.19;100.00;103022.06;5167124;28;20041;-78
2021/04/23 07:25:52;;;;;;;14.88;5.55;;;;;;;7.25;100.00;103027.03;5166619;28;20026;-79
2021/04/23 07:28:23;;;;;;;23.00;5.53;;;;;;;7.37;100.00;103024.56;5167306;28;20038;-79
2021/04/23 07:30:53;;;;;;;23.27;6.55;;;;;;;7.43;100.00;103025.09;5165045;28;20026;-80
2021/04/23 07:33:24;;;;;;;21.65;5.35;;;;;;;7.43;100.00;103021.53;5166356;28;20030;-79
2021/04/23 07:35:54;;;;;;;20.38;5.95;;;;;;;7.39;100.00;103023.53;5165187;28;20022;-78
2021/04/23 07:38:25;;;;;;;18.35;4.15;;;;;;;7.52;100.00;103019.16;5165339;28;20030;-78
2021/04/23 07:40:55;;;;;;;20.55;4.38;;;;;;;7.59;100.00;103025.00;5165653;28;20018;-78
2021/04/23 07:43:26;;;;;;;23.00;4.15;;;;;;;7.75;100.00;103023.09;5166146;28;20030;-80
2021/04/23 07:45:58;;;;;;;14.05;4.05;;;;;;;7.99;100.00;103028.75;5164751;28;20023;-80
2021/04/23 07:48:29;;;;;;;23.30;5.70;;;;;;;8.16;100.00;103022.31;5165638;28;20603;-80
2021/04/23 07:50:59;;;;;;;15.95;4.05;;;;;;;8.15;100.00;103017.94;5164949;28;20023;-80
2021/04/23 07:53:30;;;;;;;15.95;4.82;;;;;;;8.19;100.00;103023.94;5164007;28;20484;-78
2021/04/23 07:56:00;;;;;;;13.95;4.47;;;;;;;8.28;100.00;103029.56;5157056;28;20113;-79
2021/04/23 07:58:31;;;;;;;13.70;3.42;;;;;;;8.38;100.00;103021.81;5159395;28;20033;-80
2021/04/23 08:01:01;;;;;;;14.82;3.92;;;;;;;8.45;100.00;103020.47;5163307;28;20057;-80
2021/04/23 08:03:32;;;;;;;13.63;4.00;;;;;;;8.77;100.00;103017.50;5164375;28;20037;-80
2021/04/23 08:06:03;;;;;;;18.70;4.00;;;;;;;9.01;100.00;103023.91;5164024;28;20069;-78
2021/04/23 08:08:33;;;;;;;15.90;5.35;;;;;;;9.10;100.00;103022.44;5163191;28;20037;-81
2021/04/23 08:11:04;;;;;;;14.75;4.05;;;;;;;9.08;100.00;103019.84;5167333;28;20085;-82
2021/04/23 08:13:34;;;;;;;15.32;4.45;;;;;;;9.33;100.00;103028.88;5167001;28;20026;-83
2021/04/23 08:16:05;;;;;;;14.75;4.57;;;;;;;9.44;100.00;103030.81;5167798;28;20392;-83
2021/04/23 08:18:38;;;;;;;14.30;4.28;;;;;;;9.52;99.48;103023.13;5148009;28;20030;-86
2021/04/23 08:21:10;;;;;;;13.45;4.20;;;;;;;9.34;100.00;103017.22;5169476;28;20030;-80
2021/04/23 08:23:40;;;;;;;17.67;4.50;;;;;;;9.41;100.00;103018.50;5156673;28;20030;-81
2021/04/23 08:26:11;;;;;;;16.20;4.38;;;;;;;9.44;100.00;103007.59;5165533;28;20037;-80
2021/04/23 08:28:42;;;;;;;11.10;3.30;;;;;;;9.46;100.00;103007.47;5163686;28;20518;-81
2021/04/23 08:31:12;;;;;;;13.60;3.05;;;;;;;9.47;100.00;103004.69;5166106;28;20401;-79
2021/04/23 08:33:43;;;;;;;13.55;3.45;;;;;;;9.60;96.99;103013.59;5167715;28;20394;-80
2021/04/23 08:36:14;;;;;;;15.70;3.50;;;;;;;9.68;93.54;103013.03;5167644;28;20138;-78
2021/04/23 08:38:44;;;;;;;13.35;3.38;;;;;;;9.79;97.27;103004.28;5168234;28;20062;-79
2021/04/23 08:41:15;;;;;;;7.03;3.20;;;;;;;9.89;87.98;103010.69;5167480;28;20022;-79
2021/04/23 08:43:45;;;;;;;11.13;2.97;;;;;;;9.90;86.74;102999.00;5166191;28;20110;-80
2021/04/23 08:46:16;;;;;;;16.55;3.50;;;;;;;9.95;87.33;102994.16;5167284;28;20356;-78
2021/04/23 08:48:48;;;;;;;10.70;2.92;;;;;;;10.15;84.66;103000.78;5167591;28;20089;-79
2021/04/23 08:51:21;;;;;;;14.93;3.10;;;;;;;10.00;89.03;102997.38;5167802;28;20023;-80
2021/04/23 08:53:52;;;;;;;10.10;3.10;;;;;;;9.93;82.48;102993.41;5167389;28;20117;-80
2021/04/23 08:56:23;;;;;;;8.02;2.75;;;;;;;10.04;81.39;102987.25;5167331;28;20038;-80
2021/04/23 08:58:54;;;;;;;10.25;3.08;;;;;;;10.08;87.85;102989.59;5163023;28;20026;-77
2021/04/23 09:01:26;;;;;;;8.35;3.00;;;;;;;10.32;81.29;102981.63;5148102;28;20447;-79
2021/04/23 09:03:57;;;;;;;10.05;2.85;;;;;;;10.63;75.71;102988.28;5150922;28;20031;-79
2021/04/23 09:06:28;;;;;;;15.48;3.28;;;;;;;10.80;74.35;102984.34;5164423;28;20554;-79
2021/04/23 09:09:09;;;;;;;11.35;3.22;;;;;;;10.76;72.18;102976.63;5165421;28;20400;-77
2021/04/23 09:11:43;;;;;;;8.38;3.17;;;;;;;10.73;70.03;102982.22;5164738;28;20488;-80
2021/04/23 09:14:19;;;;;;;9.07;3.00;;;;;;;10.65;78.66;102972.06;5165643;28;20085;-80
2021/04/23 09:16:53;;;;;;;9.77;2.85;;;;;;;10.81;78.48;102971.78;5165476;28;20041;-80
2021/04/23 09:19:32;;;;;;;8.68;2.97;;;;;;;11.08;67.10;102988.44;5165086;28;20030;-80
2021/04/23 09:22:06;;;;;;;12.70;4.18;;;;;;;11.14;70.09;102985.31;5179530;28;20037;-79
2021/04/23 09:24:42;;;;;;;14.20;3.20;;;;;;;11.41;75.86;102978.78;5152437;28;20027;-79
2021/04/23 09:27:18;;;;;;;9.57;3.03;;;;;;;11.70;64.88;102986.34;5164872;28;20088;-79
2021/04/23 09:29:53;;;;;;;10.45;3.42;;;;;;;11.59;72.95;102989.91;5164859;28;20022;-79
2021/04/23 09:32:28;;;;;;;8.30;3.10;;;;;;;11.72;65.50;102985.28;5164629;28;20619;-80
2021/04/23 09:35:02;;;;;;;11.95;3.35;;;;;;;11.69;63.58;102985.50;5164408;28;20073;-77
2021/04/23 09:37:42;;;;;;;14.50;4.10;;;;;;;11.79;62.17;102983.78;5159789;28;20026;-80
2021/04/23 09:40:24;;;;;;;14.45;3.10;;;;;;;11.82;68.16;102985.44;5168625;28;20373;-81
2021/04/23 09:42:59;;;;;;;12.50;3.30;;;;;;;12.15;65.61;102976.50;5167134;28;20014;-77
2021/04/23 09:45:32;;;;;;;12.10;3.15;;;;;;;12.49;62.81;102976.38;5156420;28;20034;-79
2021/04/23 09:48:03;;;;;;;10.98;2.85;;;;;;;12.68;58.30;102979.25;5164952;28;20030;-77
2021/04/23 09:50:36;;;;;;;8.73;2.90;;;;;;;12.77;57.60;102981.19;5162306;28;20102;-82
2021/04/23 09:53:07;;;;;;;8.48;2.90;;;;;;;12.73;55.30;102977.03;5161992;28;20060;-79
2021/04/23 09:55:38;;;;;;;10.75;3.17;;;;;;;12.53;56.24;102972.47;5165088;28;20062;-80
2021/04/23 09:58:09;;;;;;;12.43;3.15;;;;;;;12.56;57.36;102975.75;5163612;28;20356;-79
2021/04/23 10:00:40;;;;;;;14.93;4.00;;;;;;;12.59;57.19;102971.94;5166331;28;20031;-80
2021/04/23 10:03:11;;;;;;;13.02;3.30;;;;;;;12.53;55.22;102967.94;5167290;28;20326;-81
2021/04/23 10:05:43;;;;;;;11.32;3.38;;;;;;;12.73;53.49;102976.19;5166532;28;20113;-80
2021/04/23 10:08:25;;;;;;;10.40;3.60;;;;;;;12.87;53.55;102970.50;5159842;28;20045;-81
2021/04/23 10:10:58;;;;;;;10.98;3.10;;;;;;;12.81;52.77;102969.19;5154902;28;20487;-80
2021/04/23 10:13:30;;;;;;;19.17;3.75;;;;;;;12.93;52.86;102962.75;5158896;28;20034;-80
2021/04/23 10:16:01;;;;;;;15.85;3.33;;;;;;;13.07;54.60;102963.41;5165215;28;20460;-83
2021/04/23 10:18:32;;;;;;;14.75;3.30;;;;;;;13.12;53.47;102958.50;5168472;28;20033;-77
2021/04/23 10:21:03;;;;;;;13.20;3.45;;;;;;;13.24;51.95;102956.59;5169549;28;20027;-80
2021/04/23 10:23:33;;;;;;;8.75;3.53;;;;;;;13.31;52.18;102955.94;5169281;28;20081;-78
2021/04/23 10:26:04;;;;;;;9.45;3.40;;;;;;;13.52;55.66;102960.47;5168322;28;20018;-78
2021/04/23 10:28:35;;;;;;;8.85;2.95;;;;;;;13.81;48.19;102952.50;5163232;28;20029;-78
2021/04/23 10:31:06;;;;;;;8.82;3.17;;;;;;;13.70;47.83;102964.22;5168194;28;20078;-78
2021/04/23 10:33:36;;;;;;;11.77;3.78;;;;;;;13.64;51.03;102967.47;5168057;28;20034;-81
2021/04/23 10:36:07;;;;;;;14.18;3.88;;;;;;;13.72;51.10;102964.94;5168741;28;20022;-78
2021/04/23 10:38:40;;;;;;;12.40;4.00;;;;;;;13.86;52.10;102966.44;5168174;28;20498;-79
2021/04/23 10:41:11;;;;;;;15.40;3.85;;;;;;;14.06;48.89;102970.91;5168582;28;20026;-79
2021/04/23 10:43:51;;;;;;;12.13;4.03;;;;;;;14.25;49.74;102965.53;5157732;28;20034;-78
2021/04/23 10:46:23;;;;;;;17.77;4.20;;;;;;;14.36;50.15;102964.56;5158249;28;20037;-79
2021/04/23 10:49:05;;;;;;;10.60;3.90;;;;;;;14.54;48.41;102962.06;5166092;28;20050;-79
2021/04/23 10:51:35;;;;;;;10.15;3.65;;;;;;;14.42;47.74;102960.47;5166735;28;20550;-80
2021/04/23 10:54:13;;;;;;;13.20;3.88;;;;;;;14.20;45.67;102959.69;5165358;28;20069;-81
2021/04/23 10:56:50;;;;;;;10.35;3.85;;;;;;;14.10;49.74;102949.88;5164846;28;20026;-80
2021/04/23 10:59:20;;;;;;;10.40;3.58;;;;;;;14.00;49.69;102958.78;5162043;28;20038;-80
2021/04/23 11:01:52;;;;;;;9.90;3.92;;;;;;;13.74;49.14;102953.03;5168250;28;20041;-79
2021/04/23 11:04:22;;;;;;;13.23;3.75;;;;;;;13.98;49.83;102954.53;5167529;28;20033;-81
2021/04/23 11:07:01;;;;;;;11.63;4.07;;;;;;;14.04;48.95;102956.66;5168097;28;20030;-81
2021/04/23 11:09:31;;;;;;;14.57;4.38;;;;;;;14.08;48.20;102950.00;5166941;28;20542;-81
2021/04/23 11:12:08;;;;;;;11.40;5.20;;;;;;;14.26;46.43;102952.91;5167893;28;20030;-82
2021/04/23 11:14:39;;;;;;;16.08;4.13;;;;;;;14.41;49.48;102950.66;5166195;28;20373;-83
2021/04/23 11:17:17;;;;;;;13.43;3.92;;;;;;;14.36;48.36;102947.53;5167184;28;20026;-82
2021/04/23 11:19:49;;;;;;;10.55;4.18;;;;;;;14.53;47.63;102952.25;5166460;28;20030;-80
2021/04/23 11:22:22;;;;;;;11.35;4.00;;;;;;;14.66;48.04;102950.13;5166046;28;20101;-80
2021/04/23 11:25:20;;;;;;;9.52;4.07;;;;;;;14.68;50.40;102948.13;5166932;28;20034;-81
2021/04/23 11:28:00;;;;;;;11.25;4.05;;;;;;;15.02;47.57;102943.13;5164398;28;20026;-81
2021/04/23 11:31:01;;;;;;;18.33;4.80;;;;;;;14.80;45.43;102942.56;5166389;28;20555;-81
2021/04/23 11:33:50;;;;;;;26.75;5.90;;;;;;;14.57;46.23;102940.19;5159137;28;20109;-79
2021/04/23 11:36:29;;;;;;;16.27;5.28;;;;;;;14.50;45.92;102934.47;5158340;28;20058;-80
2021/04/23 11:39:06;;;;;;;17.15;4.70;;;;;;;14.76;47.65;102933.94;5181150;28;20873;-80